createdAt,value
2023-01-13T00:05:35.907Z,18.77
2023-01-13T00:11:37.844Z,17.90
2023-01-13T00:17:39.842Z,19.40
2023-01-13T00:23:43.268Z,16.20
2023-01-13T00:29:45.733Z,18.60
2023-01-13T00:36:00.229Z,16.73
2023-01-13T00:42:20.763Z,18.33
2023-01-13T00:48:25.245Z,17.73
2023-01-13T00:54:27.694Z,16.97
2023-01-13T01:00:34.222Z,17.17
2023-01-13T01:06:36.131Z,21.50
2023-01-13T01:12:37.856Z,19.70
2023-01-13T01:18:42.022Z,18.27
2023-01-13T01:24:43.688Z,21.60
2023-01-13T01:30:46.453Z,22.23
2023-01-13T01:36:48.926Z,20.13
2023-01-13T01:43:09.094Z,20.00
2023-01-13T01:49:23.992Z,21.67
2023-01-13T01:55:34.484Z,21.27
2023-01-13T02:01:39.091Z,19.30
2023-01-13T02:07:44.422Z,17.13
2023-01-13T02:13:46.958Z,18.00
2023-01-13T02:20:27.574Z,17.23
2023-01-13T02:26:55.135Z,20.33
2023-01-13T02:33:00.619Z,21.67
2023-01-13T02:39:20.153Z,23.77
2023-01-13T02:45:30.653Z,22.27
2023-01-13T02:51:34.104Z,20.30
2023-01-13T02:57:38.588Z,20.83
2023-01-13T03:03:41.057Z,23.23
2023-01-13T03:09:58.578Z,22.17
2023-01-13T03:16:16.126Z,20.47
2023-01-13T03:22:41.665Z,21.90
2023-01-13T03:28:50.141Z,19.40
2023-01-13T03:35:24.225Z,25.13
2023-01-13T03:41:58.347Z,20.80
2023-01-13T03:48:04.835Z,25.63
2023-01-13T03:54:11.305Z,21.20
2023-01-13T04:00:14.779Z,16.53
2023-01-13T04:06:23.264Z,16.87
2023-01-13T04:12:52.819Z,20.13
2023-01-13T04:18:55.272Z,21.40
2023-01-13T04:24:57.737Z,18.37
2023-01-13T04:31:00.249Z,17.80
2023-01-13T04:37:02.713Z,22.17
2023-01-13T04:43:06.196Z,19.20
2023-01-13T04:49:08.643Z,15.30
2023-01-13T04:55:10.874Z,14.50
2023-01-13T05:01:13.680Z,14.30
2023-01-13T05:07:17.069Z,13.80
2023-01-13T05:13:37.614Z,13.70
2023-01-13T05:19:41.064Z,17.20
2023-01-13T05:25:44.769Z,15.67
2023-01-13T05:31:46.978Z,22.17
2023-01-13T05:37:49.426Z,20.33
2023-01-13T05:43:52.104Z,20.50
2023-01-13T05:49:54.363Z,25.50
2023-01-13T05:55:56.807Z,25.33
2023-01-13T06:01:58.534Z,25.47
2023-01-13T06:08:02.738Z,21.23
2023-01-13T06:14:05.189Z,19.50
2023-01-13T06:20:09.665Z,30.77
2023-01-13T06:26:24.160Z,19.97
2023-01-13T06:32:34.675Z,24.03
2023-01-13T06:38:40.131Z,20.77
2023-01-13T06:44:42.172Z,23.37
2023-01-13T06:50:44.195Z,24.50
2023-01-13T06:56:46.528Z,23.17
2023-01-13T07:02:49.026Z,19.73
2023-01-13T07:08:51.442Z,26.47
2023-01-13T07:15:13.989Z,21.13
2023-01-13T07:21:20.463Z,22.30
2023-01-13T07:27:24.917Z,24.73
2023-01-13T07:33:29.379Z,23.90
2023-01-13T07:39:31.850Z,18.97
2023-01-13T07:45:33.941Z,22.10
2023-01-13T07:51:40.812Z,19.03
2023-01-13T07:57:46.296Z,19.80
2023-01-13T08:03:48.735Z,20.83
2023-01-13T08:09:50.671Z,22.70
2023-01-13T08:15:58.936Z,20.37
2023-01-13T08:22:02.164Z,21.37
2023-01-13T08:28:05.624Z,23.70
2023-01-13T08:34:08.075Z,22.63
2023-01-13T08:40:11.146Z,22.73
2023-01-13T08:46:18.092Z,24.73
2023-01-13T08:52:23.932Z,25.13
2023-01-13T08:58:26.990Z,23.90
2023-01-13T09:04:29.731Z,22.40
2023-01-13T09:10:32.908Z,20.70
2023-01-13T09:16:35.403Z,19.73
2023-01-13T09:22:39.846Z,21.67
2023-01-13T09:28:42.328Z,19.13
2023-01-13T09:35:02.875Z,19.07
2023-01-13T09:41:25.387Z,20.00
2023-01-13T09:48:00.024Z,18.53
2023-01-13T09:54:34.648Z,21.90
2023-01-13T10:00:48.137Z,22.97
2023-01-13T10:06:56.621Z,23.80
2023-01-13T10:13:18.503Z,23.93
2023-01-13T10:19:33.652Z,23.03
2023-01-13T10:25:57.233Z,26.60
2023-01-13T10:32:01.668Z,25.43
2023-01-13T10:38:04.147Z,25.03
2023-01-13T10:44:18.644Z,28.97
2023-01-13T10:50:31.164Z,26.30
2023-01-13T10:56:34.616Z,27.83
2023-01-13T11:02:39.135Z,30.57
2023-01-13T11:08:43.555Z,27.83
2023-01-13T11:14:47.846Z,23.83
2023-01-13T11:20:55.490Z,27.23
2023-01-13T11:27:02.235Z,26.33
2023-01-13T11:33:10.472Z,27.53
2023-01-13T11:39:26.984Z,25.73
2023-01-13T11:45:52.552Z,25.37
2023-01-13T11:52:00.989Z,24.73
2023-01-13T11:58:28.897Z,25.97
2023-01-13T12:04:50.098Z,23.07
2023-01-13T12:11:16.667Z,21.50
2023-01-13T12:17:32.180Z,26.50
2023-01-13T12:23:49.720Z,27.23
2023-01-13T12:29:58.154Z,22.03
2023-01-13T12:36:08.652Z,24.33
2023-01-13T12:42:47.282Z,22.73
2023-01-13T12:48:55.739Z,22.60
2023-01-13T12:54:58.170Z,23.77
2023-01-13T13:01:36.887Z,24.47
2023-01-13T13:07:47.290Z,22.27
2023-01-13T13:13:49.748Z,19.67
2023-01-13T13:19:55.150Z,22.93
2023-01-13T13:26:06.726Z,24.20
2023-01-13T13:32:24.249Z,24.13
2023-01-13T13:39:12.933Z,21.27
2023-01-13T13:45:44.642Z,21.97
2023-01-13T13:52:09.120Z,19.43
2023-01-13T13:58:18.489Z,20.00
2023-01-13T14:04:28.233Z,16.00
2023-01-13T14:10:36.544Z,19.80
2023-01-13T14:16:40.941Z,17.20
2023-01-13T14:22:52.410Z,16.17
2023-01-13T14:28:55.896Z,17.70
2023-01-13T14:34:58.392Z,15.97
2023-01-13T14:41:12.608Z,18.37
2023-01-13T14:47:26.414Z,16.57
2023-01-13T14:53:39.894Z,16.90
2023-01-13T14:59:49.397Z,19.40
2023-01-13T15:05:53.886Z,18.07
2023-01-13T15:11:59.295Z,21.10
2023-01-13T15:18:14.795Z,18.87
2023-01-13T15:24:17.246Z,17.90
2023-01-13T15:30:27.795Z,19.40
2023-01-13T15:36:32.220Z,17.60
2023-01-13T15:42:52.778Z,17.17
2023-01-13T15:48:55.214Z,21.23
2023-01-13T15:54:57.673Z,19.23
2023-01-13T16:01:00.244Z,18.63
2023-01-13T16:07:02.338Z,24.37
2023-01-13T16:13:05.057Z,25.47
2023-01-13T16:19:07.525Z,23.00
2023-01-13T16:25:17.952Z,23.10
2023-01-13T16:31:19.808Z,48.57
2023-01-13T16:37:24.191Z,131.03
2023-01-13T16:43:29.460Z,155.63
2023-01-13T16:49:31.990Z,35.40
2023-01-13T16:55:34.054Z,24.50
2023-01-13T17:01:39.969Z,15.30
2023-01-13T17:07:44.367Z,14.87
2023-01-13T17:13:49.852Z,16.87
2023-01-13T17:19:53.288Z,17.40
2023-01-13T17:25:55.738Z,16.27
2023-01-13T17:31:58.280Z,16.07
2023-01-13T17:38:01.676Z,15.83
2023-01-13T17:44:04.134Z,14.97
2023-01-13T17:50:07.639Z,17.43
2023-01-13T17:56:11.035Z,15.30
2023-01-13T18:02:13.136Z,12.17
2023-01-13T18:08:15.098Z,13.50
2023-01-13T18:14:23.446Z,14.70
2023-01-13T18:20:44.001Z,13.70
2023-01-13T18:27:06.319Z,12.70
2023-01-13T18:33:09.023Z,13.90
2023-01-13T18:39:11.462Z,15.73
2023-01-13T18:45:13.948Z,10.93
2023-01-13T18:51:16.372Z,15.00
2023-01-13T18:57:19.886Z,15.43
2023-01-13T19:03:30.020Z,15.83
2023-01-13T19:09:33.882Z,18.67
2023-01-13T19:15:40.362Z,16.13
2023-01-13T19:21:43.798Z,14.57
2023-01-13T19:27:47.268Z,13.40
2023-01-13T19:33:49.702Z,11.70
2023-01-13T19:39:52.176Z,10.47
2023-01-13T19:45:57.702Z,16.13
2023-01-13T19:52:00.133Z,12.53
2023-01-13T19:58:03.605Z,16.63
2023-01-13T20:04:08.064Z,13.60
2023-01-13T20:10:11.521Z,11.17
2023-01-13T20:16:13.990Z,11.23
2023-01-13T20:22:18.120Z,19.73
2023-01-13T20:28:20.893Z,14.43
2023-01-13T20:34:24.359Z,13.13
2023-01-13T20:40:28.878Z,11.27
2023-01-13T20:46:31.327Z,13.07
2023-01-13T20:52:33.818Z,13.43
2023-01-13T20:58:39.280Z,11.73
2023-01-13T21:04:42.775Z,10.60
2023-01-13T21:10:46.246Z,13.50
2023-01-13T21:16:51.781Z,13.00
2023-01-13T21:22:54.204Z,13.17
2023-01-13T21:29:00.654Z,11.97
2023-01-13T21:35:03.149Z,14.07
2023-01-13T21:41:12.653Z,19.30
2023-01-13T21:47:40.215Z,20.40
2023-01-13T21:53:42.667Z,14.83
2023-01-13T21:59:45.152Z,10.20
2023-01-13T22:05:55.632Z,10.97
2023-01-13T22:11:58.089Z,11.13
2023-01-13T22:18:01.578Z,14.93
2023-01-13T22:24:05.026Z,16.87
2023-01-13T22:30:16.510Z,13.30
2023-01-13T22:36:18.742Z,10.87
2023-01-13T22:42:21.468Z,13.13
2023-01-13T22:48:23.906Z,10.57
2023-01-13T22:54:26.379Z,9.50
2023-01-13T23:00:28.868Z,11.90
2023-01-13T23:06:33.314Z,9.60
2023-01-13T23:12:35.089Z,9.03
2023-01-13T23:18:36.974Z,9.30
2023-01-13T23:24:41.475Z,12.93
2023-01-13T23:30:43.311Z,10.07
2023-01-13T23:36:46.636Z,11.37
2023-01-13T23:42:49.101Z,9.73
2023-01-13T23:48:52.601Z,8.40
2023-01-13T23:54:55.079Z,15.03
